createdAt,value
2023-04-27T00:04:04.827Z,100.00
2023-04-27T00:19:08.976Z,100.00
2023-04-27T00:34:11.123Z,100.00
2023-04-27T00:49:13.148Z,100.00
2023-04-27T01:04:15.597Z,100.00
2023-04-27T01:19:18.019Z,100.00
2023-04-27T01:34:19.929Z,100.00
2023-04-27T01:49:21.813Z,100.00
2023-04-27T02:04:23.805Z,100.00
2023-04-27T02:19:27.215Z,100.00
2023-04-27T02:34:29.048Z,100.00
2023-04-27T02:49:30.865Z,100.00
2023-04-27T03:04:32.735Z,100.00
2023-04-27T03:19:34.895Z,100.00
2023-04-27T03:34:37.053Z,100.00
2023-04-27T03:49:38.834Z,100.00
2023-04-27T04:04:41.274Z,100.00
2023-04-27T04:19:43.562Z,100.00
2023-04-27T04:34:51.483Z,100.00
2023-04-27T04:49:53.301Z,100.00
2023-04-27T05:04:57.213Z,100.00
2023-04-27T05:19:59.561Z,100.00
2023-04-27T05:35:01.384Z,100.00
2023-04-27T05:50:04.060Z,100.00
2023-04-27T06:05:07.097Z,100.00
2023-04-27T06:20:12.253Z,100.00
2023-04-27T06:35:14.088Z,100.00
2023-04-27T06:50:16.694Z,100.00
2023-04-27T07:05:18.977Z,100.00
2023-04-27T07:20:21.386Z,100.00
2023-04-27T07:35:23.413Z,100.00
2023-04-27T07:50:25.988Z,100.00
2023-04-27T08:05:28.340Z,99.10
2023-04-27T08:20:35.334Z,89.54
2023-04-27T08:35:37.278Z,89.49
2023-04-27T08:50:43.710Z,82.25
2023-04-27T09:06:00.575Z,74.56
2023-04-27T09:21:07.808Z,81.44
2023-04-27T09:36:10.282Z,79.65
2023-04-27T09:51:15.189Z,81.67
2023-04-27T10:06:35.885Z,85.51
2023-04-27T10:21:38.832Z,81.57
2023-04-27T10:36:41.415Z,76.49
2023-04-27T10:51:43.321Z,74.93
2023-04-27T11:06:47.017Z,68.53
2023-04-27T11:21:49.189Z,71.48
2023-04-27T11:37:14.310Z,76.46
2023-04-27T11:52:19.718Z,79.52
2023-04-27T12:07:21.663Z,84.06
2023-04-27T12:22:23.985Z,89.00
2023-04-27T12:37:27.103Z,89.75
2023-04-27T12:52:32.139Z,91.44
2023-04-27T13:07:34.218Z,92.82
2023-04-27T13:22:39.410Z,100.00
2023-04-27T13:37:43.316Z,100.00
2023-04-27T13:52:45.348Z,100.00
2023-04-27T14:07:47.246Z,100.00
2023-04-27T14:22:49.435Z,100.00
2023-04-27T14:37:52.679Z,100.00
2023-04-27T14:52:58.177Z,100.00
2023-04-27T15:08:00.056Z,100.00
2023-04-27T15:23:02.465Z,100.00
2023-04-27T15:38:04.520Z,100.00
2023-04-27T15:53:06.482Z,100.00
2023-04-27T16:08:08.320Z,100.00
2023-04-27T16:23:10.447Z,100.00
2023-04-27T16:38:12.372Z,100.00
2023-04-27T16:53:15.148Z,100.00
2023-04-27T17:08:26.568Z,100.00
2023-04-27T17:23:28.660Z,100.00
2023-04-27T17:38:30.700Z,100.00
2023-04-27T17:53:35.487Z,100.00
2023-04-27T18:09:07.069Z,100.00
2023-04-27T18:24:12.300Z,100.00
2023-04-27T18:39:23.602Z,100.00
2023-04-27T18:54:25.740Z,100.00
2023-04-27T19:09:27.896Z,100.00
2023-04-27T19:24:30.388Z,100.00
2023-04-27T19:39:34.496Z,100.00
2023-04-27T19:54:38.427Z,100.00
2023-04-27T20:09:40.588Z,100.00
2023-04-27T20:24:42.968Z,100.00
2023-04-27T20:39:45.027Z,100.00
2023-04-27T20:54:46.986Z,100.00
2023-04-27T21:09:48.830Z,100.00
2023-04-27T21:24:51.116Z,100.00
2023-04-27T21:39:52.977Z,100.00
2023-04-27T21:54:54.845Z,100.00
2023-04-27T22:09:56.661Z,100.00
2023-04-27T22:24:58.816Z,100.00
2023-04-27T22:40:00.732Z,100.00
2023-04-27T22:55:02.650Z,100.00
2023-04-27T23:10:06.146Z,100.00
2023-04-27T23:25:08.451Z,100.00
2023-04-27T23:40:10.467Z,100.00
2023-04-27T23:55:12.365Z,100.00
